sensor_id;sensor_type;location;lat;lon;timestamp;pressure;altitude;pressure_sealevel;temperature;humidity
498;BME280;39559;48.630;9.162;2022-07-29T00:01:25;97296.75;;;17.00;100.00
498;BME280;39559;48.630;9.162;2022-07-29T00:05:47;97298.88;;;16.95;100.00
498;BME280;39559;48.630;9.162;2022-07-29T00:08:13;97292.69;;;16.96;100.00
498;BME280;39559;48.630;9.162;2022-07-29T00:10:41;97294.69;;;16.92;100.00
498;BME280;39559;48.630;9.162;2022-07-29T00:13:07;97290.19;;;16.81;100.00
498;BME280;39559;48.630;9.162;2022-07-29T00:15:32;97291.13;;;16.80;100.00
498;BME280;39559;48.630;9.162;2022-07-29T00:17:58;97297.00;;;16.71;100.00
498;BME280;39559;48.630;9.162;2022-07-29T00:20:24;97293.88;;;16.66;100.00
498;BME280;39559;48.630;9.162;2022-07-29T00:22:50;97293.66;;;16.69;100.00
498;BME280;39559;48.630;9.162;2022-07-29T00:25:15;97288.75;;;16.51;100.00
498;BME280;39559;48.630;9.162;2022-07-29T00:29:42;97287.50;;;16.44;100.00
498;BME280;39559;48.630;9.162;2022-07-29T00:32:08;97294.16;;;16.37;100.00
498;BME280;39559;48.630;9.162;2022-07-29T00:34:34;97279.16;;;16.39;100.00
498;BME280;39559;48.630;9.162;2022-07-29T00:37:18;97284.81;;;16.33;100.00
498;BME280;39559;48.630;9.162;2022-07-29T00:39:44;97284.06;;;16.31;100.00
498;BME280;39559;48.630;9.162;2022-07-29T00:42:10;97285.03;;;16.30;100.00
498;BME280;39559;48.630;9.162;2022-07-29T00:44:37;97284.06;;;16.31;100.00
498;BME280;39559;48.630;9.162;2022-07-29T00:47:12;97277.47;;;16.25;100.00
498;BME280;39559;48.630;9.162;2022-07-29T00:49:41;97278.22;;;16.15;100.00
498;BME280;39559;48.630;9.162;2022-07-29T00:53:38;97265.31;;;16.11;100.00
498;BME280;39559;48.630;9.162;2022-07-29T00:56:04;97271.91;;;16.04;100.00
498;BME280;39559;48.630;9.162;2022-07-29T00:58:34;97258.19;;;16.01;100.00
498;BME280;39559;48.630;9.162;2022-07-29T01:01:01;97263.31;;;16.02;100.00
498;BME280;39559;48.630;9.162;2022-07-29T01:03:28;97258.72;;;16.06;100.00
498;BME280;39559;48.630;9.162;2022-07-29T01:05:54;97257.78;;;15.94;100.00
498;BME280;39559;48.630;9.162;2022-07-29T01:08:20;97246.69;;;15.90;100.00
498;BME280;39559;48.630;9.162;2022-07-29T01:10:49;97253.19;;;15.85;100.00
498;BME280;39559;48.630;9.162;2022-07-29T01:13:16;97249.94;;;15.94;100.00
498;BME280;39559;48.630;9.162;2022-07-29T01:17:52;97244.47;;;15.84;100.00
498;BME280;39559;48.630;9.162;2022-07-29T01:29:00;97243.63;;;15.97;100.00
498;BME280;39559;48.630;9.162;2022-07-29T01:31:54;97241.63;;;15.87;100.00
498;BME280;39559;48.630;9.162;2022-07-29T01:34:44;97248.03;;;15.83;100.00
498;BME280;39559;48.630;9.162;2022-07-29T01:37:22;97251.34;;;15.72;100.00
498;BME280;39559;48.630;9.162;2022-07-29T01:41:36;97261.44;;;15.79;100.00
498;BME280;39559;48.630;9.162;2022-07-29T01:44:34;97252.00;;;15.76;100.00
498;BME280;39559;48.630;9.162;2022-07-29T01:47:12;97249.94;;;15.81;100.00
498;BME280;39559;48.630;9.162;2022-07-29T01:49:45;97245.38;;;15.70;100.00
498;BME280;39559;48.630;9.162;2022-07-29T01:52:20;97243.28;;;15.63;100.00
498;BME280;39559;48.630;9.162;2022-07-29T01:54:55;97242.13;;;15.54;100.00
498;BME280;39559;48.630;9.162;2022-07-29T01:57:30;97237.19;;;15.62;100.00
498;BME280;39559;48.630;9.162;2022-07-29T02:00:00;97236.88;;;15.54;100.00
498;BME280;39559;48.630;9.162;2022-07-29T02:02:26;97233.44;;;15.53;100.00
498;BME280;39559;48.630;9.162;2022-07-29T02:05:39;97241.88;;;15.57;100.00
498;BME280;39559;48.630;9.162;2022-07-29T02:08:10;97233.31;;;15.55;100.00
498;BME280;39559;48.630;9.162;2022-07-29T02:10:38;97228.28;;;15.52;100.00
498;BME280;39559;48.630;9.162;2022-07-29T02:13:11;97225.44;;;15.55;100.00
498;BME280;39559;48.630;9.162;2022-07-29T02:15:42;97224.94;;;15.50;100.00
498;BME280;39559;48.630;9.162;2022-07-29T02:18:18;97228.91;;;15.43;100.00
498;BME280;39559;48.630;9.162;2022-07-29T02:20:49;97223.44;;;15.46;100.00
498;BME280;39559;48.630;9.162;2022-07-29T02:23:23;97228.69;;;15.46;100.00
498;BME280;39559;48.630;9.162;2022-07-29T02:25:53;97229.66;;;15.45;100.00
498;BME280;39559;48.630;9.162;2022-07-29T02:29:31;97229.94;;;15.40;100.00
498;BME280;39559;48.630;9.162;2022-07-29T02:32:01;97234.63;;;15.35;100.00
498;BME280;39559;48.630;9.162;2022-07-29T02:34:29;97230.44;;;15.32;100.00
498;BME280;39559;48.630;9.162;2022-07-29T02:36:57;97227.72;;;15.34;100.00
498;BME280;39559;48.630;9.162;2022-07-29T02:39:25;97229.53;;;15.33;100.00
498;BME280;39559;48.630;9.162;2022-07-29T02:41:59;97227.41;;;15.39;100.00
498;BME280;39559;48.630;9.162;2022-07-29T02:44:27;97225.75;;;15.38;100.00
498;BME280;39559;48.630;9.162;2022-07-29T02:47:20;97228.44;;;15.23;100.00
498;BME280;39559;48.630;9.162;2022-07-29T02:49:52;97219.97;;;15.32;100.00
498;BME280;39559;48.630;9.162;2022-07-29T02:53:18;97216.66;;;15.43;100.00
498;BME280;39559;48.630;9.162;2022-07-29T02:55:57;97218.81;;;15.24;100.00
498;BME280;39559;48.630;9.162;2022-07-29T02:58:38;97228.22;;;15.13;100.00
498;BME280;39559;48.630;9.162;2022-07-29T03:01:12;97227.44;;;15.11;100.00
498;BME280;39559;48.630;9.162;2022-07-29T03:03:39;97223.06;;;15.12;100.00
498;BME280;39559;48.630;9.162;2022-07-29T03:06:08;97228.69;;;15.06;100.00
498;BME280;39559;48.630;9.162;2022-07-29T03:08:36;97229.94;;;15.00;100.00
498;BME280;39559;48.630;9.162;2022-07-29T03:11:15;97230.97;;;14.97;100.00
498;BME280;39559;48.630;9.162;2022-07-29T03:13:42;97228.44;;;14.96;100.00
498;BME280;39559;48.630;9.162;2022-07-29T03:17:11;97227.31;;;15.00;100.00
498;BME280;39559;48.630;9.162;2022-07-29T03:19:39;97228.53;;;14.94;100.00
498;BME280;39559;48.630;9.162;2022-07-29T03:22:05;97226.66;;;14.96;100.00
498;BME280;39559;48.630;9.162;2022-07-29T03:24:34;97224.38;;;14.92;100.00
498;BME280;39559;48.630;9.162;2022-07-29T03:27:06;97227.25;;;14.87;100.00
498;BME280;39559;48.630;9.162;2022-07-29T03:29:32;97228.41;;;14.83;100.00
498;BME280;39559;48.630;9.162;2022-07-29T03:31:58;97233.91;;;14.78;100.00
498;BME280;39559;48.630;9.162;2022-07-29T03:34:24;97223.84;;;14.72;100.00
498;BME280;39559;48.630;9.162;2022-07-29T03:36:50;97225.34;;;14.76;100.00
498;BME280;39559;48.630;9.162;2022-07-29T03:41:11;97227.94;;;14.76;100.00
498;BME280;39559;48.630;9.162;2022-07-29T03:43:41;97233.81;;;14.80;100.00
498;BME280;39559;48.630;9.162;2022-07-29T03:46:27;97230.13;;;14.70;100.00
498;BME280;39559;48.630;9.162;2022-07-29T03:48:58;97239.06;;;14.66;100.00
498;BME280;39559;48.630;9.162;2022-07-29T03:51:26;97235.91;;;14.61;100.00
498;BME280;39559;48.630;9.162;2022-07-29T03:53:53;97240.66;;;14.54;100.00
498;BME280;39559;48.630;9.162;2022-07-29T03:56:22;97238.53;;;14.46;100.00
498;BME280;39559;48.630;9.162;2022-07-29T03:58:52;97238.91;;;14.40;100.00
498;BME280;39559;48.630;9.162;2022-07-29T04:01:20;97237.34;;;14.37;100.00
498;BME280;39559;48.630;9.162;2022-07-29T04:05:03;97248.13;;;14.46;100.00
498;BME280;39559;48.630;9.162;2022-07-29T04:07:29;97246.75;;;14.40;100.00
498;BME280;39559;48.630;9.162;2022-07-29T04:09:55;97249.53;;;14.37;100.00
498;BME280;39559;48.630;9.162;2022-07-29T04:12:21;97249.75;;;14.34;100.00
498;BME280;39559;48.630;9.162;2022-07-29T04:14:46;97245.53;;;14.31;100.00
498;BME280;39559;48.630;9.162;2022-07-29T04:17:12;97255.53;;;14.25;100.00
498;BME280;39559;48.630;9.162;2022-07-29T04:19:38;97256.53;;;14.22;100.00
498;BME280;39559;48.630;9.162;2022-07-29T04:22:03;97248.44;;;14.27;100.00
498;BME280;39559;48.630;9.162;2022-07-29T04:24:29;97251.63;;;14.32;100.00
498;BME280;39559;48.630;9.162;2022-07-29T04:28:59;97252.63;;;14.29;100.00
498;BME280;39559;48.630;9.162;2022-07-29T04:31:25;97252.63;;;14.29;100.00
498;BME280;39559;48.630;9.162;2022-07-29T04:33:50;97258.91;;;14.27;100.00
498;BME280;39559;48.630;9.162;2022-07-29T04:36:16;97254.31;;;14.30;100.00
498;BME280;39559;48.630;9.162;2022-07-29T04:38:42;97260.19;;;14.34;100.00
498;BME280;39559;48.630;9.162;2022-07-29T04:41:08;97256.38;;;14.39;100.00
498;BME280;39559;48.630;9.162;2022-07-29T04:43:37;97258.31;;;14.36;100.00
498;BME280;39559;48.630;9.162;2022-07-29T04:46:03;97265.50;;;14.32;100.00
498;BME280;39559;48.630;9.162;2022-07-29T04:48:29;97261.03;;;14.34;100.00
498;BME280;39559;48.630;9.162;2022-07-29T04:52:55;97266.97;;;14.51;100.00
498;BME280;39559;48.630;9.162;2022-07-29T04:55:21;97262.50;;;14.53;100.00
498;BME280;39559;48.630;9.162;2022-07-29T04:57:46;97259.06;;;14.52;100.00
498;BME280;39559;48.630;9.162;2022-07-29T05:00:12;97253.38;;;14.60;100.00
498;BME280;39559;48.630;9.162;2022-07-29T05:02:38;97256.63;;;14.64;100.00
498;BME280;39559;48.630;9.162;2022-07-29T05:05:04;97264.47;;;14.64;100.00
498;BME280;39559;48.630;9.162;2022-07-29T05:07:30;97266.06;;;14.66;100.00
498;BME280;39559;48.630;9.162;2022-07-29T05:09:55;97266.41;;;14.74;100.00
498;BME280;39559;48.630;9.162;2022-07-29T05:12:23;97265.47;;;14.90;100.00
498;BME280;39559;48.630;9.162;2022-07-29T05:16:51;97255.78;;;15.05;100.00
498;BME280;39559;48.630;9.162;2022-07-29T05:19:18;97262.69;;;15.06;100.00
498;BME280;39559;48.630;9.162;2022-07-29T05:21:46;97266.59;;;15.13;100.00
498;BME280;39559;48.630;9.162;2022-07-29T05:24:13;97262.53;;;15.22;100.00
498;BME280;39559;48.630;9.162;2022-07-29T05:26:39;97266.16;;;15.33;100.00
498;BME280;39559;48.630;9.162;2022-07-29T05:29:05;97268.53;;;15.36;100.00
498;BME280;39559;48.630;9.162;2022-07-29T05:31:31;97272.88;;;15.50;100.00
498;BME280;39559;48.630;9.162;2022-07-29T05:33:57;97267.88;;;15.60;100.00
498;BME280;39559;48.630;9.162;2022-07-29T05:36:22;97269.97;;;15.68;100.00
498;BME280;39559;48.630;9.162;2022-07-29T05:40:47;97273.50;;;15.81;100.00
498;BME280;39559;48.630;9.162;2022-07-29T05:43:13;97268.56;;;15.89;100.00
498;BME280;39559;48.630;9.162;2022-07-29T05:45:39;97273.06;;;16.00;100.00
498;BME280;39559;48.630;9.162;2022-07-29T05:48:04;97270.34;;;16.15;100.00
498;BME280;39559;48.630;9.162;2022-07-29T05:50:30;97277.47;;;16.12;100.00
498;BME280;39559;48.630;9.162;2022-07-29T05:52:55;97279.34;;;16.36;100.00
498;BME280;39559;48.630;9.162;2022-07-29T05:55:21;97284.25;;;16.41;100.00
498;BME280;39559;48.630;9.162;2022-07-29T05:57:47;97280.72;;;16.29;100.00
498;BME280;39559;48.630;9.162;2022-07-29T06:00:13;97286.69;;;16.31;100.00
498;BME280;39559;48.630;9.162;2022-07-29T06:04:44;97289.41;;;16.42;100.00
498;BME280;39559;48.630;9.162;2022-07-29T06:07:10;97290.13;;;16.44;100.00
498;BME280;39559;48.630;9.162;2022-07-29T06:09:36;97286.13;;;16.51;100.00
498;BME280;39559;48.630;9.162;2022-07-29T06:12:02;97298.59;;;16.86;100.00
498;BME280;39559;48.630;9.162;2022-07-29T06:14:28;97299.72;;;16.82;100.00
498;BME280;39559;48.630;9.162;2022-07-29T06:16:54;97292.09;;;16.79;100.00
498;BME280;39559;48.630;9.162;2022-07-29T06:19:20;97300.47;;;16.84;100.00
498;BME280;39559;48.630;9.162;2022-07-29T06:21:47;97302.13;;;16.98;100.00
498;BME280;39559;48.630;9.162;2022-07-29T06:24:14;97297.19;;;17.06;100.00
498;BME280;39559;48.630;9.162;2022-07-29T06:28:40;97299.41;;;17.24;100.00
498;BME280;39559;48.630;9.162;2022-07-29T06:31:06;97295.28;;;17.33;100.00
498;BME280;39559;48.630;9.162;2022-07-29T06:33:32;97298.63;;;17.35;100.00
498;BME280;39559;48.630;9.162;2022-07-29T06:35:57;97297.44;;;17.39;100.00
498;BME280;39559;48.630;9.162;2022-07-29T06:38:23;97296.31;;;17.54;100.00
498;BME280;39559;48.630;9.162;2022-07-29T06:40:48;97287.25;;;17.58;100.00
498;BME280;39559;48.630;9.162;2022-07-29T06:43:35;97291.59;;;17.71;100.00
498;BME280;39559;48.630;9.162;2022-07-29T06:46:06;97301.59;;;17.90;100.00
498;BME280;39559;48.630;9.162;2022-07-29T06:48:32;97295.72;;;17.86;100.00
498;BME280;39559;48.630;9.162;2022-07-29T06:52:37;97294.13;;;18.19;100.00
498;BME280;39559;48.630;9.162;2022-07-29T06:55:03;97291.16;;;18.23;100.00
498;BME280;39559;48.630;9.162;2022-07-29T06:57:28;97295.56;;;18.23;100.00
498;BME280;39559;48.630;9.162;2022-07-29T06:59:56;97294.97;;;18.31;100.00
498;BME280;39559;48.630;9.162;2022-07-29T07:02:22;97301.66;;;18.35;100.00
498;BME280;39559;48.630;9.162;2022-07-29T07:04:48;97303.69;;;18.31;100.00
498;BME280;39559;48.630;9.162;2022-07-29T07:07:13;97306.59;;;18.39;100.00
498;BME280;39559;48.630;9.162;2022-07-29T07:09:39;97302.63;;;18.45;100.00
498;BME280;39559;48.630;9.162;2022-07-29T07:12:05;97306.47;;;18.52;100.00
498;BME280;39559;48.630;9.162;2022-07-29T07:16:33;97303.72;;;18.54;100.00
498;BME280;39559;48.630;9.162;2022-07-29T07:18:59;97312.06;;;18.59;100.00
498;BME280;39559;48.630;9.162;2022-07-29T07:21:25;97314.09;;;18.78;100.00
498;BME280;39559;48.630;9.162;2022-07-29T07:23:50;97310.78;;;18.87;100.00
498;BME280;39559;48.630;9.162;2022-07-29T07:26:16;97310.88;;;18.97;100.00
498;BME280;39559;48.630;9.162;2022-07-29T07:28:42;97314.22;;;18.99;100.00
498;BME280;39559;48.630;9.162;2022-07-29T07:31:07;97316.38;;;19.05;100.00
498;BME280;39559;48.630;9.162;2022-07-29T07:33:33;97321.72;;;19.15;100.00
498;BME280;39559;48.630;9.162;2022-07-29T07:35:59;97320.97;;;19.35;100.00
498;BME280;39559;48.630;9.162;2022-07-29T07:40:28;97315.75;;;19.56;100.00
498;BME280;39559;48.630;9.162;2022-07-29T07:42:54;97320.91;;;19.58;100.00
498;BME280;39559;48.630;9.162;2022-07-29T07:45:20;97317.88;;;19.63;100.00
498;BME280;39559;48.630;9.162;2022-07-29T07:47:45;97314.84;;;19.79;100.00
498;BME280;39559;48.630;9.162;2022-07-29T07:50:12;97313.78;;;19.81;100.00
498;BME280;39559;48.630;9.162;2022-07-29T07:52:53;97313.91;;;19.68;100.00
498;BME280;39559;48.630;9.162;2022-07-29T07:55:20;97314.84;;;19.79;100.00
498;BME280;39559;48.630;9.162;2022-07-29T07:57:46;97318.84;;;19.94;100.00
498;BME280;39559;48.630;9.162;2022-07-29T08:00:14;97315.53;;;19.81;100.00
498;BME280;39559;48.630;9.162;2022-07-29T08:04:25;97316.47;;;20.12;100.00
498;BME280;39559;48.630;9.162;2022-07-29T08:06:51;97314.78;;;20.11;100.00
498;BME280;39559;48.630;9.162;2022-07-29T08:09:20;97321.56;;;20.25;100.00
498;BME280;39559;48.630;9.162;2022-07-29T08:11:46;97326.34;;;20.41;100.00
498;BME280;39559;48.630;9.162;2022-07-29T08:14:11;97323.94;;;20.59;100.00
498;BME280;39559;48.630;9.162;2022-07-29T08:16:39;97323.78;;;20.60;100.00
498;BME280;39559;48.630;9.162;2022-07-29T08:19:06;97319.00;;;20.65;100.00
498;BME280;39559;48.630;9.162;2022-07-29T08:21:32;97317.94;;;20.78;100.00
498;BME280;39559;48.630;9.162;2022-07-29T08:23:57;97318.75;;;20.78;100.00
498;BME280;39559;48.630;9.162;2022-07-29T08:28:21;97311.63;;;21.00;100.00
498;BME280;39559;48.630;9.162;2022-07-29T08:30:47;97315.50;;;21.05;100.00
498;BME280;39559;48.630;9.162;2022-07-29T08:33:12;97321.38;;;21.19;100.00
498;BME280;39559;48.630;9.162;2022-07-29T08:35:39;97319.34;;;21.32;100.00
498;BME280;39559;48.630;9.162;2022-07-29T08:38:04;97320.97;;;21.23;100.00
498;BME280;39559;48.630;9.162;2022-07-29T08:40:30;97322.25;;;21.29;100.00
498;BME280;39559;48.630;9.162;2022-07-29T08:42:56;97307.56;;;21.65;100.00
498;BME280;39559;48.630;9.162;2022-07-29T08:45:23;97318.13;;;21.75;100.00
498;BME280;39559;48.630;9.162;2022-07-29T08:47:48;97312.28;;;21.81;100.00
498;BME280;39559;48.630;9.162;2022-07-29T08:52:18;97313.81;;;21.74;97.26
498;BME280;39559;48.630;9.162;2022-07-29T08:54:45;97313.41;;;21.89;100.00
498;BME280;39559;48.630;9.162;2022-07-29T08:57:14;97322.03;;;21.71;95.34
498;BME280;39559;48.630;9.162;2022-07-29T08:59:42;97317.22;;;22.33;90.54
498;BME280;39559;48.630;9.162;2022-07-29T09:02:17;97319.56;;;22.46;98.63
498;BME280;39559;48.630;9.162;2022-07-29T09:04:45;97324.41;;;22.88;90.09
498;BME280;39559;48.630;9.162;2022-07-29T09:07:15;97319.47;;;23.03;88.35
498;BME280;39559;48.630;9.162;2022-07-29T09:09:41;97328.13;;;23.05;88.16
498;BME280;39559;48.630;9.162;2022-07-29T09:12:08;97323.38;;;23.09;88.95
498;BME280;39559;48.630;9.162;2022-07-29T09:16:13;97320.22;;;23.41;71.64
498;BME280;39559;48.630;9.162;2022-07-29T09:18:42;97320.94;;;23.43;70.05
498;BME280;39559;48.630;9.162;2022-07-29T09:21:10;97324.09;;;23.29;76.42
498;BME280;39559;48.630;9.162;2022-07-29T09:24:08;97317.03;;;23.19;76.93
498;BME280;39559;48.630;9.162;2022-07-29T09:26:36;97307.81;;;23.42;75.68
498;BME280;39559;48.630;9.162;2022-07-29T09:31:38;97309.03;;;24.01;70.25
498;BME280;39559;48.630;9.162;2022-07-29T09:34:05;97307.28;;;23.92;68.85
498;BME280;39559;48.630;9.162;2022-07-29T09:36:38;97305.78;;;23.89;72.93
498;BME280;39559;48.630;9.162;2022-07-29T09:40:23;97307.16;;;23.93;71.96
498;BME280;39559;48.630;9.162;2022-07-29T09:42:49;97302.31;;;23.89;68.22
498;BME280;39559;48.630;9.162;2022-07-29T09:45:34;97306.09;;;23.50;73.64
498;BME280;39559;48.630;9.162;2022-07-29T09:48:16;97299.66;;;23.53;73.64
498;BME280;39559;48.630;9.162;2022-07-29T09:50:43;97298.50;;;23.55;73.87
498;BME280;39559;48.630;9.162;2022-07-29T09:53:10;97298.97;;;23.69;76.06
498;BME280;39559;48.630;9.162;2022-07-29T09:55:50;97303.66;;;23.39;78.63
498;BME280;39559;48.630;9.162;2022-07-29T09:58:18;97295.09;;;23.45;82.41
498;BME280;39559;48.630;9.162;2022-07-29T10:00:45;97305.47;;;23.56;80.64
498;BME280;39559;48.630;9.162;2022-07-29T10:04:05;97297.13;;;24.05;76.49
498;BME280;39559;48.630;9.162;2022-07-29T10:06:30;97300.00;;;24.38;73.10
498;BME280;39559;48.630;9.162;2022-07-29T10:09:09;97293.47;;;24.06;72.89
498;BME280;39559;48.630;9.162;2022-07-29T10:11:36;97294.03;;;24.44;71.61
498;BME280;39559;48.630;9.162;2022-07-29T10:14:03;97290.16;;;24.91;75.52
498;BME280;39559;48.630;9.162;2022-07-29T10:16:29;97288.22;;;25.01;68.98
498;BME280;39559;48.630;9.162;2022-07-29T10:19:01;97286.53;;;25.08;70.31
498;BME280;39559;48.630;9.162;2022-07-29T10:21:27;97277.75;;;25.08;69.66
498;BME280;39559;48.630;9.162;2022-07-29T10:23:53;97278.09;;;25.13;72.52
498;BME280;39559;48.630;9.162;2022-07-29T10:27:59;97275.94;;;24.66;70.99
498;BME280;39559;48.630;9.162;2022-07-29T10:30:26;97283.09;;;24.74;68.16
498;BME280;39559;48.630;9.162;2022-07-29T10:33:18;97265.72;;;24.87;67.35
498;BME280;39559;48.630;9.162;2022-07-29T10:44:18;97259.44;;;25.97;61.66
498;BME280;39559;48.630;9.162;2022-07-29T10:46:46;97261.91;;;25.65;64.57
498;BME280;39559;48.630;9.162;2022-07-29T10:52:06;97263.88;;;25.31;66.70
498;BME280;39559;48.630;9.162;2022-07-29T10:54:48;97262.50;;;25.18;64.36
498;BME280;39559;48.630;9.162;2022-07-29T10:59:48;97266.69;;;24.44;62.69
498;BME280;39559;48.630;9.162;2022-07-29T11:05:20;97293.94;;;24.28;64.02
498;BME280;39559;48.630;9.162;2022-07-29T11:10:41;97282.16;;;23.96;67.51
498;BME280;39559;48.630;9.162;2022-07-29T11:13:07;97284.69;;;23.80;66.95
498;BME280;39559;48.630;9.162;2022-07-29T11:15:57;97289.47;;;23.48;69.87
498;BME280;39559;48.630;9.162;2022-07-29T11:18:23;97309.63;;;23.23;71.55
498;BME280;39559;48.630;9.162;2022-07-29T11:20:51;97312.38;;;22.29;77.37
498;BME280;39559;48.630;9.162;2022-07-29T11:23:32;97329.81;;;21.73;86.27
498;BME280;39559;48.630;9.162;2022-07-29T11:28:54;97350.59;;;20.86;95.64
498;BME280;39559;48.630;9.162;2022-07-29T11:31:38;97356.44;;;20.17;100.00
498;BME280;39559;48.630;9.162;2022-07-29T11:34:20;97359.69;;;19.12;100.00
498;BME280;39559;48.630;9.162;2022-07-29T11:45:11;97378.03;;;17.87;100.00
498;BME280;39559;48.630;9.162;2022-07-29T11:47:49;97382.41;;;18.10;100.00
498;BME280;39559;48.630;9.162;2022-07-29T11:50:38;97389.75;;;18.40;100.00
498;BME280;39559;48.630;9.162;2022-07-29T11:53:11;97365.75;;;18.45;100.00
498;BME280;39559;48.630;9.162;2022-07-29T11:55:41;97367.03;;;18.28;100.00
498;BME280;39559;48.630;9.162;2022-07-29T11:58:07;97361.09;;;18.37;100.00
498;BME280;39559;48.630;9.162;2022-07-29T12:00:36;97354.53;;;18.54;100.00
498;BME280;39559;48.630;9.162;2022-07-29T12:03:39;97360.88;;;18.74;100.00
498;BME280;39559;48.630;9.162;2022-07-29T12:06:12;97362.03;;;18.59;100.00
498;BME280;39559;48.630;9.162;2022-07-29T12:08:42;97360.38;;;18.58;100.00
498;BME280;39559;48.630;9.162;2022-07-29T12:11:15;97352.94;;;18.40;100.00
498;BME280;39559;48.630;9.162;2022-07-29T12:13:41;97369.81;;;18.38;100.00
498;BME280;39559;48.630;9.162;2022-07-29T12:16:07;97358.75;;;18.10;100.00
498;BME280;39559;48.630;9.162;2022-07-29T12:18:33;97351.69;;;18.11;100.00
498;BME280;39559;48.630;9.162;2022-07-29T12:21:01;97351.91;;;18.08;100.00
498;BME280;39559;48.630;9.162;2022-07-29T12:23:32;97353.22;;;18.02;100.00
498;BME280;39559;48.630;9.162;2022-07-29T12:27:34;97356.84;;;18.12;100.00
498;BME280;39559;48.630;9.162;2022-07-29T12:30:05;97362.38;;;17.85;100.00
498;BME280;39559;48.630;9.162;2022-07-29T12:32:39;97377.03;;;17.63;100.00
498;BME280;39559;48.630;9.162;2022-07-29T12:35:16;97349.72;;;17.42;100.00
498;BME280;39559;48.630;9.162;2022-07-29T12:37:43;97327.38;;;17.60;100.00
498;BME280;39559;48.630;9.162;2022-07-29T12:40:12;97331.47;;;17.64;100.00
498;BME280;39559;48.630;9.162;2022-07-29T12:42:39;97324.13;;;17.81;100.00
498;BME280;39559;48.630;9.162;2022-07-29T12:45:05;97325.81;;;17.58;100.00
498;BME280;39559;48.630;9.162;2022-07-29T12:47:32;97329.56;;;17.67;100.00
498;BME280;39559;48.630;9.162;2022-07-29T12:51:30;97335.44;;;17.70;100.00
498;BME280;39559;48.630;9.162;2022-07-29T12:54:07;97339.81;;;17.70;100.00
498;BME280;39559;48.630;9.162;2022-07-29T12:56:34;97332.63;;;17.60;100.00
498;BME280;39559;48.630;9.162;2022-07-29T12:59:17;97339.09;;;17.68;100.00
498;BME280;39559;48.630;9.162;2022-07-29T13:01:44;97333.22;;;17.88;100.00
498;BME280;39559;48.630;9.162;2022-07-29T13:04:09;97331.25;;;17.79;100.00
498;BME280;39559;48.630;9.162;2022-07-29T13:06:40;97341.59;;;17.93;100.00
498;BME280;39559;48.630;9.162;2022-07-29T13:09:18;97349.31;;;18.19;100.00
498;BME280;39559;48.630;9.162;2022-07-29T13:11:49;97373.34;;;18.26;100.00
498;BME280;39559;48.630;9.162;2022-07-29T13:15:23;97360.94;;;18.28;100.00
498;BME280;39559;48.630;9.162;2022-07-29T13:17:49;97364.63;;;18.25;100.00
498;BME280;39559;48.630;9.162;2022-07-29T13:20:15;97366.28;;;18.26;100.00
498;BME280;39559;48.630;9.162;2022-07-29T13:22:42;97372.16;;;18.30;100.00
498;BME280;39559;48.630;9.162;2022-07-29T13:25:08;97360.31;;;18.13;100.00
498;BME280;39559;48.630;9.162;2022-07-29T13:27:37;97364.47;;;18.15;100.00
498;BME280;39559;48.630;9.162;2022-07-29T13:30:08;97370.31;;;18.08;100.00
498;BME280;39559;48.630;9.162;2022-07-29T13:32:34;97361.22;;;18.00;100.00
498;BME280;39559;48.630;9.162;2022-07-29T13:35:04;97362.00;;;17.90;100.00
498;BME280;39559;48.630;9.162;2022-07-29T13:39:18;97367.66;;;17.96;100.00
498;BME280;39559;48.630;9.162;2022-07-29T13:41:44;97361.00;;;18.03;100.00
498;BME280;39559;48.630;9.162;2022-07-29T13:44:09;97360.38;;;18.00;100.00
498;BME280;39559;48.630;9.162;2022-07-29T13:46:35;97355.88;;;18.13;100.00
498;BME280;39559;48.630;9.162;2022-07-29T13:49:01;97358.41;;;18.26;100.00
498;BME280;39559;48.630;9.162;2022-07-29T13:51:26;97354.25;;;18.35;100.00
498;BME280;39559;48.630;9.162;2022-07-29T13:53:52;97351.00;;;18.31;100.00
498;BME280;39559;48.630;9.162;2022-07-29T13:56:18;97340.00;;;18.26;100.00
498;BME280;39559;48.630;9.162;2022-07-29T13:58:43;97344.94;;;18.42;100.00
498;BME280;39559;48.630;9.162;2022-07-29T14:03:13;97331.94;;;18.63;100.00
498;BME280;39559;48.630;9.162;2022-07-29T14:05:38;97333.47;;;18.66;100.00
498;BME280;39559;48.630;9.162;2022-07-29T14:08:04;97328.69;;;18.71;100.00
498;BME280;39559;48.630;9.162;2022-07-29T14:10:30;97331.34;;;18.82;100.00
498;BME280;39559;48.630;9.162;2022-07-29T14:12:55;97320.56;;;18.96;100.00
498;BME280;39559;48.630;9.162;2022-07-29T14:15:21;97324.16;;;19.07;100.00
498;BME280;39559;48.630;9.162;2022-07-29T14:17:48;97322.38;;;18.96;100.00
498;BME280;39559;48.630;9.162;2022-07-29T14:20:14;97321.66;;;19.05;100.00
498;BME280;39559;48.630;9.162;2022-07-29T14:22:41;97324.53;;;18.91;100.00
498;BME280;39559;48.630;9.162;2022-07-29T14:27:09;97325.59;;;18.99;100.00
498;BME280;39559;48.630;9.162;2022-07-29T14:29:35;97323.19;;;19.08;100.00
498;BME280;39559;48.630;9.162;2022-07-29T14:32:01;97317.91;;;19.08;100.00
498;BME280;39559;48.630;9.162;2022-07-29T14:34:27;97331.53;;;19.24;100.00
498;BME280;39559;48.630;9.162;2022-07-29T14:36:53;97329.28;;;19.20;100.00
498;BME280;39559;48.630;9.162;2022-07-29T14:39:23;97336.03;;;19.33;100.00
498;BME280;39559;48.630;9.162;2022-07-29T14:41:49;97323.63;;;19.24;100.00
498;BME280;39559;48.630;9.162;2022-07-29T14:44:17;97326.84;;;19.28;100.00
498;BME280;39559;48.630;9.162;2022-07-29T14:46:43;97336.31;;;19.30;100.00
498;BME280;39559;48.630;9.162;2022-07-29T14:51:03;97332.47;;;19.34;100.00
498;BME280;39559;48.630;9.162;2022-07-29T14:53:29;97334.28;;;19.34;100.00
498;BME280;39559;48.630;9.162;2022-07-29T14:55:54;97337.81;;;19.55;100.00
498;BME280;39559;48.630;9.162;2022-07-29T14:58:20;97345.19;;;19.62;100.00
498;BME280;39559;48.630;9.162;2022-07-29T15:00:47;97343.34;;;19.41;100.00